sensor_id;sensor_type;location;lat;lon;timestamp;temperature;humidity
2663;DHT22;49701;48.072;7.800;2024-02-15T00:01:23;8.10;99.90
2663;DHT22;49701;48.072;7.800;2024-02-15T00:03:49;8.00;99.90
2663;DHT22;49701;48.072;7.800;2024-02-15T00:06:14;7.90;99.90
2663;DHT22;49701;48.072;7.800;2024-02-15T00:08:40;7.90;99.90
2663;DHT22;49701;48.072;7.800;2024-02-15T00:11:05;7.80;99.90
2663;DHT22;49701;48.072;7.800;2024-02-15T00:13:31;7.80;99.90
2663;DHT22;49701;48.072;7.800;2024-02-15T00:15:58;7.70;99.90
2663;DHT22;49701;48.072;7.800;2024-02-15T00:18:24;7.70;99.90
2663;DHT22;49701;48.072;7.800;2024-02-15T00:20:50;7.70;99.90
2663;DHT22;49701;48.072;7.800;2024-02-15T00:23:16;7.60;99.90
2663;DHT22;49701;48.072;7.800;2024-02-15T00:25:41;7.70;99.90
2663;DHT22;49701;48.072;7.800;2024-02-15T00:28:10;7.60;99.90
2663;DHT22;49701;48.072;7.800;2024-02-15T00:30:37;7.60;99.90
2663;DHT22;49701;48.072;7.800;2024-02-15T00:33:03;7.60;99.90
2663;DHT22;49701;48.072;7.800;2024-02-15T00:35:33;7.60;99.90
2663;DHT22;49701;48.072;7.800;2024-02-15T00:37:58;7.60;99.90
2663;DHT22;49701;48.072;7.800;2024-02-15T00:40:24;7.60;99.90
2663;DHT22;49701;48.072;7.800;2024-02-15T00:42:49;7.50;99.90
2663;DHT22;49701;48.072;7.800;2024-02-15T00:45:15;7.50;99.90
2663;DHT22;49701;48.072;7.800;2024-02-15T00:47:41;7.40;99.90
2663;DHT22;49701;48.072;7.800;2024-02-15T00:50:08;7.40;99.90
2663;DHT22;49701;48.072;7.800;2024-02-15T00:52:33;7.30;99.90
2663;DHT22;49701;48.072;7.800;2024-02-15T00:54:59;7.30;99.90
2663;DHT22;49701;48.072;7.800;2024-02-15T00:57:25;7.30;99.90
2663;DHT22;49701;48.072;7.800;2024-02-15T00:59:50;7.20;99.90
2663;DHT22;49701;48.072;7.800;2024-02-15T01:02:17;7.20;99.90
2663;DHT22;49701;48.072;7.800;2024-02-15T01:04:43;7.20;99.90
2663;DHT22;49701;48.072;7.800;2024-02-15T01:07:10;7.10;99.90
2663;DHT22;49701;48.072;7.800;2024-02-15T01:09:36;7.10;99.90
2663;DHT22;49701;48.072;7.800;2024-02-15T01:12:02;7.10;99.90
2663;DHT22;49701;48.072;7.800;2024-02-15T01:14:29;7.10;99.90
2663;DHT22;49701;48.072;7.800;2024-02-15T01:16:56;7.00;99.90
2663;DHT22;49701;48.072;7.800;2024-02-15T01:19:21;7.00;99.90
2663;DHT22;49701;48.072;7.800;2024-02-15T01:21:47;6.90;99.90
2663;DHT22;49701;48.072;7.800;2024-02-15T01:24:13;6.90;99.90
2663;DHT22;49701;48.072;7.800;2024-02-15T01:26:38;6.90;99.90
2663;DHT22;49701;48.072;7.800;2024-02-15T01:29:04;6.90;99.90
2663;DHT22;49701;48.072;7.800;2024-02-15T01:31:29;6.90;99.90
2663;DHT22;49701;48.072;7.800;2024-02-15T01:33:55;6.90;99.90
2663;DHT22;49701;48.072;7.800;2024-02-15T01:36:21;6.80;99.90
2663;DHT22;49701;48.072;7.800;2024-02-15T01:38:46;6.80;99.90
2663;DHT22;49701;48.072;7.800;2024-02-15T01:41:12;6.80;99.90
2663;DHT22;49701;48.072;7.800;2024-02-15T01:43:37;6.80;99.90
2663;DHT22;49701;48.072;7.800;2024-02-15T01:46:07;6.80;99.90
2663;DHT22;49701;48.072;7.800;2024-02-15T01:48:33;6.70;99.90
2663;DHT22;49701;48.072;7.800;2024-02-15T01:50:59;6.70;99.90
2663;DHT22;49701;48.072;7.800;2024-02-15T01:53:25;6.60;99.90
2663;DHT22;49701;48.072;7.800;2024-02-15T01:55:52;6.60;99.90
2663;DHT22;49701;48.072;7.800;2024-02-15T01:58:18;6.60;99.90
2663;DHT22;49701;48.072;7.800;2024-02-15T02:00:46;6.60;99.90
2663;DHT22;49701;48.072;7.800;2024-02-15T02:03:12;6.60;99.90
2663;DHT22;49701;48.072;7.800;2024-02-15T02:05:40;6.60;99.90
2663;DHT22;49701;48.072;7.800;2024-02-15T02:08:06;6.60;99.90
2663;DHT22;49701;48.072;7.800;2024-02-15T02:10:37;6.60;99.90
2663;DHT22;49701;48.072;7.800;2024-02-15T02:13:03;6.60;99.90
2663;DHT22;49701;48.072;7.800;2024-02-15T02:15:28;6.60;99.90
2663;DHT22;49701;48.072;7.800;2024-02-15T02:17:57;6.60;99.90
2663;DHT22;49701;48.072;7.800;2024-02-15T02:20:25;6.60;99.90
2663;DHT22;49701;48.072;7.800;2024-02-15T02:22:51;6.50;99.90
2663;DHT22;49701;48.072;7.800;2024-02-15T02:25:20;6.60;99.90
2663;DHT22;49701;48.072;7.800;2024-02-15T02:27:45;6.50;99.90
2663;DHT22;49701;48.072;7.800;2024-02-15T02:30:12;6.50;99.90
2663;DHT22;49701;48.072;7.800;2024-02-15T02:32:43;6.50;99.90
2663;DHT22;49701;48.072;7.800;2024-02-15T02:35:09;6.50;99.90
2663;DHT22;49701;48.072;7.800;2024-02-15T02:37:37;6.50;99.90
2663;DHT22;49701;48.072;7.800;2024-02-15T02:40:03;6.40;99.90
2663;DHT22;49701;48.072;7.800;2024-02-15T02:42:29;6.40;99.90
2663;DHT22;49701;48.072;7.800;2024-02-15T02:44:55;6.40;99.90
2663;DHT22;49701;48.072;7.800;2024-02-15T02:47:20;6.40;99.90
2663;DHT22;49701;48.072;7.800;2024-02-15T02:49:46;6.40;99.90
2663;DHT22;49701;48.072;7.800;2024-02-15T02:52:12;6.40;99.90
2663;DHT22;49701;48.072;7.800;2024-02-15T02:54:38;6.40;99.90
2663;DHT22;49701;48.072;7.800;2024-02-15T02:57:03;6.40;99.90
2663;DHT22;49701;48.072;7.800;2024-02-15T02:59:33;6.40;99.90
2663;DHT22;49701;48.072;7.800;2024-02-15T03:01:59;6.40;99.90
2663;DHT22;49701;48.072;7.800;2024-02-15T03:04:24;6.30;99.90
2663;DHT22;49701;48.072;7.800;2024-02-15T03:06:50;6.30;99.90
2663;DHT22;49701;48.072;7.800;2024-02-15T03:09:16;6.30;99.90
2663;DHT22;49701;48.072;7.800;2024-02-15T03:11:42;6.30;99.90
2663;DHT22;49701;48.072;7.800;2024-02-15T03:14:07;6.20;99.90
2663;DHT22;49701;48.072;7.800;2024-02-15T03:16:33;6.20;99.90
2663;DHT22;49701;48.072;7.800;2024-02-15T03:19:01;6.20;99.90
2663;DHT22;49701;48.072;7.800;2024-02-15T03:21:28;6.20;99.90
2663;DHT22;49701;48.072;7.800;2024-02-15T03:23:53;6.10;99.90
2663;DHT22;49701;48.072;7.800;2024-02-15T03:26:28;6.10;99.90
2663;DHT22;49701;48.072;7.800;2024-02-15T03:28:54;6.00;99.90
2663;DHT22;49701;48.072;7.800;2024-02-15T03:31:20;6.00;99.90
2663;DHT22;49701;48.072;7.800;2024-02-15T03:33:45;6.00;99.90
2663;DHT22;49701;48.072;7.800;2024-02-15T03:36:11;6.00;99.90
2663;DHT22;49701;48.072;7.800;2024-02-15T03:38:41;5.90;99.90
2663;DHT22;49701;48.072;7.800;2024-02-15T03:41:06;5.90;99.90
2663;DHT22;49701;48.072;7.800;2024-02-15T03:43:32;5.90;99.90
2663;DHT22;49701;48.072;7.800;2024-02-15T03:45:59;5.90;99.90
2663;DHT22;49701;48.072;7.800;2024-02-15T03:48:24;5.90;99.90
2663;DHT22;49701;48.072;7.800;2024-02-15T03:50:50;5.90;99.90
2663;DHT22;49701;48.072;7.800;2024-02-15T03:53:16;5.90;99.90
2663;DHT22;49701;48.072;7.800;2024-02-15T03:55:41;5.80;99.90
2663;DHT22;49701;48.072;7.800;2024-02-15T03:58:07;5.80;99.90
2663;DHT22;49701;48.072;7.800;2024-02-15T04:00:34;5.80;99.90
2663;DHT22;49701;48.072;7.800;2024-02-15T04:02:59;5.80;99.90
2663;DHT22;49701;48.072;7.800;2024-02-15T04:05:26;5.70;99.90
2663;DHT22;49701;48.072;7.800;2024-02-15T04:07:51;5.70;99.90
2663;DHT22;49701;48.072;7.800;2024-02-15T04:10:18;5.70;99.90
2663;DHT22;49701;48.072;7.800;2024-02-15T04:12:44;5.60;99.90
2663;DHT22;49701;48.072;7.800;2024-02-15T04:15:10;5.60;99.90
2663;DHT22;49701;48.072;7.800;2024-02-15T04:17:41;5.60;99.90
2663;DHT22;49701;48.072;7.800;2024-02-15T04:20:07;5.60;99.90
2663;DHT22;49701;48.072;7.800;2024-02-15T04:22:33;5.60;99.90
2663;DHT22;49701;48.072;7.800;2024-02-15T04:25:03;5.50;99.90
2663;DHT22;49701;48.072;7.800;2024-02-15T04:27:28;5.50;99.90
2663;DHT22;49701;48.072;7.800;2024-02-15T04:29:54;5.50;99.90
2663;DHT22;49701;48.072;7.800;2024-02-15T04:32:20;5.50;99.90
2663;DHT22;49701;48.072;7.800;2024-02-15T04:34:46;5.60;99.90
2663;DHT22;49701;48.072;7.800;2024-02-15T04:37:12;5.50;99.90
2663;DHT22;49701;48.072;7.800;2024-02-15T04:39:38;5.50;99.90
2663;DHT22;49701;48.072;7.800;2024-02-15T04:42:04;5.50;99.90
2663;DHT22;49701;48.072;7.800;2024-02-15T04:44:32;5.50;99.90
2663;DHT22;49701;48.072;7.800;2024-02-15T04:47:01;5.50;99.90
2663;DHT22;49701;48.072;7.800;2024-02-15T04:49:27;5.40;99.90
2663;DHT22;49701;48.072;7.800;2024-02-15T04:51:54;5.40;99.90
2663;DHT22;49701;48.072;7.800;2024-02-15T04:54:20;5.40;99.90
2663;DHT22;49701;48.072;7.800;2024-02-15T04:56:45;5.40;99.90
2663;DHT22;49701;48.072;7.800;2024-02-15T04:59:11;5.40;99.90
2663;DHT22;49701;48.072;7.800;2024-02-15T05:01:42;5.40;99.90
2663;DHT22;49701;48.072;7.800;2024-02-15T05:04:11;5.40;99.90
2663;DHT22;49701;48.072;7.800;2024-02-15T05:06:37;5.40;99.90
2663;DHT22;49701;48.072;7.800;2024-02-15T05:09:03;5.30;99.90
2663;DHT22;49701;48.072;7.800;2024-02-15T05:11:39;5.30;99.90
2663;DHT22;49701;48.072;7.800;2024-02-15T05:14:12;5.30;99.90
2663;DHT22;49701;48.072;7.800;2024-02-15T05:16:37;5.30;99.90
2663;DHT22;49701;48.072;7.800;2024-02-15T05:19:08;5.30;99.90
2663;DHT22;49701;48.072;7.800;2024-02-15T05:21:33;5.30;99.90
2663;DHT22;49701;48.072;7.800;2024-02-15T05:23:59;5.30;99.90
2663;DHT22;49701;48.072;7.800;2024-02-15T05:26:24;5.30;99.90
2663;DHT22;49701;48.072;7.800;2024-02-15T05:28:50;5.30;99.90
2663;DHT22;49701;48.072;7.800;2024-02-15T05:31:19;5.40;99.90
2663;DHT22;49701;48.072;7.800;2024-02-15T05:33:50;5.30;99.90
2663;DHT22;49701;48.072;7.800;2024-02-15T05:36:16;5.40;99.90
2663;DHT22;49701;48.072;7.800;2024-02-15T05:38:46;5.40;99.90
2663;DHT22;49701;48.072;7.800;2024-02-15T05:41:12;5.40;99.90
2663;DHT22;49701;48.072;7.800;2024-02-15T05:43:38;5.40;99.90
2663;DHT22;49701;48.072;7.800;2024-02-15T05:46:04;5.40;99.90
2663;DHT22;49701;48.072;7.800;2024-02-15T05:48:32;5.40;99.90
2663;DHT22;49701;48.072;7.800;2024-02-15T05:51:03;5.40;99.90
2663;DHT22;49701;48.072;7.800;2024-02-15T05:53:29;5.40;99.90
2663;DHT22;49701;48.072;7.800;2024-02-15T05:55:55;5.40;99.90
2663;DHT22;49701;48.072;7.800;2024-02-15T05:58:23;5.30;99.90
2663;DHT22;49701;48.072;7.800;2024-02-15T06:00:49;5.40;99.90
2663;DHT22;49701;48.072;7.800;2024-02-15T06:03:18;5.40;99.90
2663;DHT22;49701;48.072;7.800;2024-02-15T06:05:43;5.40;99.90
2663;DHT22;49701;48.072;7.800;2024-02-15T06:08:10;5.40;99.90
2663;DHT22;49701;48.072;7.800;2024-02-15T06:10:38;5.40;99.90
2663;DHT22;49701;48.072;7.800;2024-02-15T06:13:03;5.40;99.90
2663;DHT22;49701;48.072;7.800;2024-02-15T06:15:29;5.40;99.90
2663;DHT22;49701;48.072;7.800;2024-02-15T06:17:55;5.40;99.90
2663;DHT22;49701;48.072;7.800;2024-02-15T06:20:20;5.30;99.90
2663;DHT22;49701;48.072;7.800;2024-02-15T06:22:47;5.40;99.90
2663;DHT22;49701;48.072;7.800;2024-02-15T06:25:12;5.40;99.90
2663;DHT22;49701;48.072;7.800;2024-02-15T06:27:39;5.40;99.90
2663;DHT22;49701;48.072;7.800;2024-02-15T06:30:08;5.40;99.90
2663;DHT22;49701;48.072;7.800;2024-02-15T06:32:52;5.40;99.90
2663;DHT22;49701;48.072;7.800;2024-02-15T06:35:37;5.50;99.90
2663;DHT22;49701;48.072;7.800;2024-02-15T06:38:21;5.50;99.90
2663;DHT22;49701;48.072;7.800;2024-02-15T06:41:05;5.50;99.90
2663;DHT22;49701;48.072;7.800;2024-02-15T06:43:31;5.60;99.90
2663;DHT22;49701;48.072;7.800;2024-02-15T06:45:58;5.60;99.90
2663;DHT22;49701;48.072;7.800;2024-02-15T06:48:24;5.70;99.90
2663;DHT22;49701;48.072;7.800;2024-02-15T06:50:51;5.70;99.90
2663;DHT22;49701;48.072;7.800;2024-02-15T06:53:17;5.80;99.90
2663;DHT22;49701;48.072;7.800;2024-02-15T06:55:44;5.90;99.90
2663;DHT22;49701;48.072;7.800;2024-02-15T06:58:10;6.00;99.90
2663;DHT22;49701;48.072;7.800;2024-02-15T07:00:38;6.00;99.90
2663;DHT22;49701;48.072;7.800;2024-02-15T07:03:05;6.10;99.90
2663;DHT22;49701;48.072;7.800;2024-02-15T07:05:33;6.20;99.90
2663;DHT22;49701;48.072;7.800;2024-02-15T07:07:58;6.30;99.90
2663;DHT22;49701;48.072;7.800;2024-02-15T07:10:24;6.40;99.90
2663;DHT22;49701;48.072;7.800;2024-02-15T07:12:50;6.40;99.90
2663;DHT22;49701;48.072;7.800;2024-02-15T07:15:16;6.50;99.90
2663;DHT22;49701;48.072;7.800;2024-02-15T07:17:42;6.60;99.90
2663;DHT22;49701;48.072;7.800;2024-02-15T07:20:10;6.70;99.90
2663;DHT22;49701;48.072;7.800;2024-02-15T07:22:35;6.80;99.90
2663;DHT22;49701;48.072;7.800;2024-02-15T07:25:02;7.00;99.90
2663;DHT22;49701;48.072;7.800;2024-02-15T07:27:29;7.00;99.90
2663;DHT22;49701;48.072;7.800;2024-02-15T07:29:55;7.10;99.90
2663;DHT22;49701;48.072;7.800;2024-02-15T07:32:21;7.20;99.90
2663;DHT22;49701;48.072;7.800;2024-02-15T07:34:47;7.30;99.90
2663;DHT22;49701;48.072;7.800;2024-02-15T07:37:13;7.30;99.90
2663;DHT22;49701;48.072;7.800;2024-02-15T07:39:40;7.40;99.90
2663;DHT22;49701;48.072;7.800;2024-02-15T07:42:06;7.50;99.90
2663;DHT22;49701;48.072;7.800;2024-02-15T07:44:34;7.60;99.90
2663;DHT22;49701;48.072;7.800;2024-02-15T07:47:02;7.60;99.90
2663;DHT22;49701;48.072;7.800;2024-02-15T07:49:28;7.70;99.90
2663;DHT22;49701;48.072;7.800;2024-02-15T07:51:55;7.80;99.90
2663;DHT22;49701;48.072;7.800;2024-02-15T07:54:21;7.80;99.90
2663;DHT22;49701;48.072;7.800;2024-02-15T07:56:47;7.80;99.90
2663;DHT22;49701;48.072;7.800;2024-02-15T07:59:14;7.90;99.90
2663;DHT22;49701;48.072;7.800;2024-02-15T08:01:42;7.90;99.90
2663;DHT22;49701;48.072;7.800;2024-02-15T08:04:07;7.90;99.90
2663;DHT22;49701;48.072;7.800;2024-02-15T08:06:33;8.00;99.90
2663;DHT22;49701;48.072;7.800;2024-02-15T08:09:02;8.00;99.90
2663;DHT22;49701;48.072;7.800;2024-02-15T08:11:30;8.10;99.90
2663;DHT22;49701;48.072;7.800;2024-02-15T08:13:55;8.20;99.90
2663;DHT22;49701;48.072;7.800;2024-02-15T08:16:24;8.20;99.90
2663;DHT22;49701;48.072;7.800;2024-02-15T08:18:52;8.30;99.90
2663;DHT22;49701;48.072;7.800;2024-02-15T08:21:26;8.30;99.90
2663;DHT22;49701;48.072;7.800;2024-02-15T08:24:07;8.30;99.90
2663;DHT22;49701;48.072;7.800;2024-02-15T08:26:38;8.40;99.90
2663;DHT22;49701;48.072;7.800;2024-02-15T08:29:03;8.50;99.90
2663;DHT22;49701;48.072;7.800;2024-02-15T08:31:29;8.60;99.90
2663;DHT22;49701;48.072;7.800;2024-02-15T08:33:59;8.70;99.90
2663;DHT22;49701;48.072;7.800;2024-02-15T08:36:25;8.80;99.90
2663;DHT22;49701;48.072;7.800;2024-02-15T08:38:51;9.00;99.90
2663;DHT22;49701;48.072;7.800;2024-02-15T08:41:17;9.10;99.90
2663;DHT22;49701;48.072;7.800;2024-02-15T08:43:44;9.20;99.90
2663;DHT22;49701;48.072;7.800;2024-02-15T08:46:09;9.30;99.90
2663;DHT22;49701;48.072;7.800;2024-02-15T08:48:35;9.40;99.90
2663;DHT22;49701;48.072;7.800;2024-02-15T08:51:01;9.50;99.90
2663;DHT22;49701;48.072;7.800;2024-02-15T08:53:27;9.60;99.90
2663;DHT22;49701;48.072;7.800;2024-02-15T08:55:52;9.70;99.90
2663;DHT22;49701;48.072;7.800;2024-02-15T08:58:18;9.80;99.90
2663;DHT22;49701;48.072;7.800;2024-02-15T09:00:44;9.90;99.90
2663;DHT22;49701;48.072;7.800;2024-02-15T09:03:10;10.00;99.90
2663;DHT22;49701;48.072;7.800;2024-02-15T09:05:38;10.10;99.90
2663;DHT22;49701;48.072;7.800;2024-02-15T09:08:03;10.30;99.90
2663;DHT22;49701;48.072;7.800;2024-02-15T09:10:30;10.40;99.90
2663;DHT22;49701;48.072;7.800;2024-02-15T09:12:55;10.50;99.90
2663;DHT22;49701;48.072;7.800;2024-02-15T09:15:21;10.60;99.90
2663;DHT22;49701;48.072;7.800;2024-02-15T09:17:47;10.70;99.90
2663;DHT22;49701;48.072;7.800;2024-02-15T09:20:17;10.80;99.90
2663;DHT22;49701;48.072;7.800;2024-02-15T09:22:51;10.90;99.90
2663;DHT22;49701;48.072;7.800;2024-02-15T09:25:17;11.10;99.90
2663;DHT22;49701;48.072;7.800;2024-02-15T09:27:43;11.20;99.90
2663;DHT22;49701;48.072;7.800;2024-02-15T09:30:09;11.30;99.90
2663;DHT22;49701;48.072;7.800;2024-02-15T09:32:36;11.50;99.90
2663;DHT22;49701;48.072;7.800;2024-02-15T09:35:01;11.80;99.90
2663;DHT22;49701;48.072;7.800;2024-02-15T09:37:27;12.00;99.90
2663;DHT22;49701;48.072;7.800;2024-02-15T09:39:54;12.20;99.90
2663;DHT22;49701;48.072;7.800;2024-02-15T09:42:20;12.30;99.90
2663;DHT22;49701;48.072;7.800;2024-02-15T09:44:46;12.40;99.90
2663;DHT22;49701;48.072;7.800;2024-02-15T09:47:12;12.60;99.90
2663;DHT22;49701;48.072;7.800;2024-02-15T09:49:38;12.70;99.90
2663;DHT22;49701;48.072;7.800;2024-02-15T09:52:08;12.50;99.90
2663;DHT22;49701;48.072;7.800;2024-02-15T09:54:40;12.40;99.90
2663;DHT22;49701;48.072;7.800;2024-02-15T09:57:09;12.40;99.90
2663;DHT22;49701;48.072;7.800;2024-02-15T09:59:36;12.40;99.90
2663;DHT22;49701;48.072;7.800;2024-02-15T10:02:01;12.50;99.90
2663;DHT22;49701;48.072;7.800;2024-02-15T10:04:30;12.60;99.90
2663;DHT22;49701;48.072;7.800;2024-02-15T10:06:59;12.90;99.90
2663;DHT22;49701;48.072;7.800;2024-02-15T10:09:28;13.20;99.90
2663;DHT22;49701;48.072;7.800;2024-02-15T10:11:58;13.50;99.90
2663;DHT22;49701;48.072;7.800;2024-02-15T10:14:24;13.60;99.90
2663;DHT22;49701;48.072;7.800;2024-02-15T10:16:51;13.70;99.90
2663;DHT22;49701;48.072;7.800;2024-02-15T10:19:18;14.00;99.90
2663;DHT22;49701;48.072;7.800;2024-02-15T10:21:46;14.40;99.90
2663;DHT22;49701;48.072;7.800;2024-02-15T10:24:11;14.60;99.90
2663;DHT22;49701;48.072;7.800;2024-02-15T10:26:37;14.60;99.90
2663;DHT22;49701;48.072;7.800;2024-02-15T10:29:09;14.70;99.90
2663;DHT22;49701;48.072;7.800;2024-02-15T10:31:35;14.80;99.90
2663;DHT22;49701;48.072;7.800;2024-02-15T10:34:04;15.00;99.90
2663;DHT22;49701;48.072;7.800;2024-02-15T10:36:30;15.40;99.90
2663;DHT22;49701;48.072;7.800;2024-02-15T10:39:15;15.60;99.90
2663;DHT22;49701;48.072;7.800;2024-02-15T10:41:45;15.90;99.90
2663;DHT22;49701;48.072;7.800;2024-02-15T10:44:15;16.40;99.90
2663;DHT22;49701;48.072;7.800;2024-02-15T10:46:41;16.50;99.90
2663;DHT22;49701;48.072;7.800;2024-02-15T10:49:07;16.50;99.90
2663;DHT22;49701;48.072;7.800;2024-02-15T10:51:32;16.50;99.90
2663;DHT22;49701;48.072;7.800;2024-02-15T10:54:01;16.40;99.90
2663;DHT22;49701;48.072;7.800;2024-02-15T10:56:32;16.60;99.90
2663;DHT22;49701;48.072;7.800;2024-02-15T10:59:02;16.70;99.90
2663;DHT22;49701;48.072;7.800;2024-02-15T11:01:30;16.80;99.90
2663;DHT22;49701;48.072;7.800;2024-02-15T11:03:59;16.80;99.90
2663;DHT22;49701;48.072;7.800;2024-02-15T11:06:26;17.10;99.90
2663;DHT22;49701;48.072;7.800;2024-02-15T11:08:52;17.80;99.90
2663;DHT22;49701;48.072;7.800;2024-02-15T11:11:18;17.90;99.90
2663;DHT22;49701;48.072;7.800;2024-02-15T11:13:48;18.00;99.90
2663;DHT22;49701;48.072;7.800;2024-02-15T11:18:59;18.50;99.90
2663;DHT22;49701;48.072;7.800;2024-02-15T11:24:28;18.50;99.90
2663;DHT22;49701;48.072;7.800;2024-02-15T11:27:03;18.20;99.90
2663;DHT22;49701;48.072;7.800;2024-02-15T11:35:05;18.50;99.90
2663;DHT22;49701;48.072;7.800;2024-02-15T11:37:49;18.70;99.90
2663;DHT22;49701;48.072;7.800;2024-02-15T11:40:19;19.10;99.90
2663;DHT22;49701;48.072;7.800;2024-02-15T11:42:51;19.60;99.90
2663;DHT22;49701;48.072;7.800;2024-02-15T11:45:19;19.80;99.90
2663;DHT22;49701;48.072;7.800;2024-02-15T11:47:48;19.70;99.90
2663;DHT22;49701;48.072;7.800;2024-02-15T11:50:16;19.60;99.90
2663;DHT22;49701;48.072;7.800;2024-02-15T11:52:43;19.70;99.90
2663;DHT22;49701;48.072;7.800;2024-02-15T11:55:09;19.90;99.90
2663;DHT22;49701;48.072;7.800;2024-02-15T11:57:41;19.90;99.90
2663;DHT22;49701;48.072;7.800;2024-02-15T12:00:22;19.50;99.90
2663;DHT22;49701;48.072;7.800;2024-02-15T12:03:07;19.10;99.90
2663;DHT22;49701;48.072;7.800;2024-02-15T12:05:51;18.80;99.90
2663;DHT22;49701;48.072;7.800;2024-02-15T12:08:35;18.70;99.90
2663;DHT22;49701;48.072;7.800;2024-02-15T12:11:19;18.70;99.90
2663;DHT22;49701;48.072;7.800;2024-02-15T12:14:04;18.80;99.90
2663;DHT22;49701;48.072;7.800;2024-02-15T12:16:58;18.80;99.90
2663;DHT22;49701;48.072;7.800;2024-02-15T12:19:42;19.00;99.90
2663;DHT22;49701;48.072;7.800;2024-02-15T12:22:07;19.20;99.90
2663;DHT22;49701;48.072;7.800;2024-02-15T12:24:34;19.60;99.90
2663;DHT22;49701;48.072;7.800;2024-02-15T12:27:00;19.90;99.90
2663;DHT22;49701;48.072;7.800;2024-02-15T12:29:31;20.10;99.90
2663;DHT22;49701;48.072;7.800;2024-02-15T12:32:01;20.20;99.90
2663;DHT22;49701;48.072;7.800;2024-02-15T12:34:26;20.20;99.90
2663;DHT22;49701;48.072;7.800;2024-02-15T12:37:04;20.00;99.90
2663;DHT22;49701;48.072;7.800;2024-02-15T12:39:30;19.70;99.90
2663;DHT22;49701;48.072;7.800;2024-02-15T12:41:57;19.70;99.90
2663;DHT22;49701;48.072;7.800;2024-02-15T12:44:22;19.70;99.90
2663;DHT22;49701;48.072;7.800;2024-02-15T12:46:55;19.40;99.90
2663;DHT22;49701;48.072;7.800;2024-02-15T12:51:50;19.20;99.90
2663;DHT22;49701;48.072;7.800;2024-02-15T12:54:19;19.20;99.90
2663;DHT22;49701;48.072;7.800;2024-02-15T12:56:46;19.30;99.90
2663;DHT22;49701;48.072;7.800;2024-02-15T12:59:14;19.40;99.90
2663;DHT22;49701;48.072;7.800;2024-02-15T13:01:39;19.50;99.90
2663;DHT22;49701;48.072;7.800;2024-02-15T13:04:05;19.70;99.90
2663;DHT22;49701;48.072;7.800;2024-02-15T13:06:32;19.90;99.90
2663;DHT22;49701;48.072;7.800;2024-02-15T13:09:00;19.90;99.90
2663;DHT22;49701;48.072;7.800;2024-02-15T13:11:27;20.00;99.90
2663;DHT22;49701;48.072;7.800;2024-02-15T13:13:53;20.00;99.90
2663;DHT22;49701;48.072;7.800;2024-02-15T13:16:20;20.10;99.90
2663;DHT22;49701;48.072;7.800;2024-02-15T13:18:48;20.20;99.90
2663;DHT22;49701;48.072;7.800;2024-02-15T13:21:13;20.10;99.90
2663;DHT22;49701;48.072;7.800;2024-02-15T13:23:39;19.90;99.90
2663;DHT22;49701;48.072;7.800;2024-02-15T13:26:04;19.90;99.90
2663;DHT22;49701;48.072;7.800;2024-02-15T13:28:30;19.80;99.90
2663;DHT22;49701;48.072;7.800;2024-02-15T13:30:56;19.80;99.90
2663;DHT22;49701;48.072;7.800;2024-02-15T13:33:22;19.70;99.90
2663;DHT22;49701;48.072;7.800;2024-02-15T13:35:47;19.60;99.90
2663;DHT22;49701;48.072;7.800;2024-02-15T13:38:14;19.50;99.90
2663;DHT22;49701;48.072;7.800;2024-02-15T13:40:48;19.30;99.90
2663;DHT22;49701;48.072;7.800;2024-02-15T13:43:15;19.10;99.90
2663;DHT22;49701;48.072;7.800;2024-02-15T13:45:42;19.10;99.90
2663;DHT22;49701;48.072;7.800;2024-02-15T13:48:09;18.90;99.90
2663;DHT22;49701;48.072;7.800;2024-02-15T13:50:36;18.80;99.90
2663;DHT22;49701;48.072;7.800;2024-02-15T13:53:01;18.60;99.90
2663;DHT22;49701;48.072;7.800;2024-02-15T13:55:27;18.40;99.90
2663;DHT22;49701;48.072;7.800;2024-02-15T13:57:53;18.30;99.90
2663;DHT22;49701;48.072;7.800;2024-02-15T14:00:21;18.20;99.90
2663;DHT22;49701;48.072;7.800;2024-02-15T14:02:53;18.10;99.90
2663;DHT22;49701;48.072;7.800;2024-02-15T14:05:19;18.20;99.90
2663;DHT22;49701;48.072;7.800;2024-02-15T14:07:48;18.20;99.90
2663;DHT22;49701;48.072;7.800;2024-02-15T14:10:15;18.30;99.90
2663;DHT22;49701;48.072;7.800;2024-02-15T14:12:40;18.30;99.90
2663;DHT22;49701;48.072;7.800;2024-02-15T14:15:06;18.30;99.90
2663;DHT22;49701;48.072;7.800;2024-02-15T14:17:32;18.30;99.90
2663;DHT22;49701;48.072;7.800;2024-02-15T14:19:58;18.30;99.90
2663;DHT22;49701;48.072;7.800;2024-02-15T14:22:23;18.30;99.90
2663;DHT22;49701;48.072;7.800;2024-02-15T14:24:53;18.30;99.90
2663;DHT22;49701;48.072;7.800;2024-02-15T14:27:19;18.30;99.90
2663;DHT22;49701;48.072;7.800;2024-02-15T14:29:44;18.20;99.90
2663;DHT22;49701;48.072;7.800;2024-02-15T14:32:30;18.20;99.90
2663;DHT22;49701;48.072;7.800;2024-02-15T14:35:14;18.20;99.90
2663;DHT22;49701;48.072;7.800;2024-02-15T14:37:42;18.10;99.90
2663;DHT22;49701;48.072;7.800;2024-02-15T14:40:08;18.00;99.90
2663;DHT22;49701;48.072;7.800;2024-02-15T14:42:34;18.00;99.90
2663;DHT22;49701;48.072;7.800;2024-02-15T14:45:01;17.90;99.90
2663;DHT22;49701;48.072;7.800;2024-02-15T14:47:27;17.80;99.90
2663;DHT22;49701;48.072;7.800;2024-02-15T14:49:52;17.80;99.90
2663;DHT22;49701;48.072;7.800;2024-02-15T14:52:18;17.70;99.90
2663;DHT22;49701;48.072;7.800;2024-02-15T14:54:43;17.60;99.90
2663;DHT22;49701;48.072;7.800;2024-02-15T14:57:09;17.50;99.90
2663;DHT22;49701;48.072;7.800;2024-02-15T14:59:34;17.40;99.90
2663;DHT22;49701;48.072;7.800;2024-02-15T15:02:01;17.30;99.90
2663;DHT22;49701;48.072;7.800;2024-02-15T15:04:34;17.20;99.90
2663;DHT22;49701;48.072;7.800;2024-02-15T15:07:19;17.10;99.90
2663;DHT22;49701;48.072;7.800;2024-02-15T15:10:04;17.00;99.90
2663;DHT22;49701;48.072;7.800;2024-02-15T15:12:48;16.90;99.90
2663;DHT22;49701;48.072;7.800;2024-02-15T15:15:15;16.90;99.90
2663;DHT22;49701;48.072;7.800;2024-02-15T15:17:46;16.80;99.90
2663;DHT22;49701;48.072;7.800;2024-02-15T15:20:12;16.80;99.90
2663;DHT22;49701;48.072;7.800;2024-02-15T15:22:38;16.70;99.90
2663;DHT22;49701;48.072;7.800;2024-02-15T15:25:04;16.70;99.90
2663;DHT22;49701;48.072;7.800;2024-02-15T15:27:30;16.70;99.90
2663;DHT22;49701;48.072;7.800;2024-02-15T15:29:56;16.60;99.90
2663;DHT22;49701;48.072;7.800;2024-02-15T15:32:22;16.60;99.90
2663;DHT22;49701;48.072;7.800;2024-02-15T15:34:48;16.60;99.90
2663;DHT22;49701;48.072;7.800;2024-02-15T15:37:14;16.50;99.90
2663;DHT22;49701;48.072;7.800;2024-02-15T15:39:41;16.50;99.90
2663;DHT22;49701;48.072;7.800;2024-02-15T15:42:07;16.40;99.90
2663;DHT22;49701;48.072;7.800;2024-02-15T15:44:33;16.30;99.90
2663;DHT22;49701;48.072;7.800;2024-02-15T15:46:59;16.20;99.90
2663;DHT22;49701;48.072;7.800;2024-02-15T15:49:25;16.20;99.90
2663;DHT22;49701;48.072;7.800;2024-02-15T15:51:51;16.20;99.90
2663;DHT22;49701;48.072;7.800;2024-02-15T15:54:18;16.20;99.90
2663;DHT22;49701;48.072;7.800;2024-02-15T15:56:47;16.10;99.90
2663;DHT22;49701;48.072;7.800;2024-02-15T15:59:13;16.00;99.90
2663;DHT22;49701;48.072;7.800;2024-02-15T16:01:46;15.90;99.90
2663;DHT22;49701;48.072;7.800;2024-02-15T16:04:11;15.70;99.90
2663;DHT22;49701;48.072;7.800;2024-02-15T16:06:37;15.70;99.90
2663;DHT22;49701;48.072;7.800;2024-02-15T16:09:06;15.70;99.90
2663;DHT22;49701;48.072;7.800;2024-02-15T16:11:34;15.60;99.90